Time;durP1;ratioP1;P1;durP2;ratioP2;P2;SDS_P1;SDS_P2;PMS_P1;PMS_P2;Temp;Humidity;BMP_temperature;BMP_pressure;BME280_temperature;BME280_humidity;BME280_pressure;Samples;Min_cycle;Max_cycle;Signal;HPM_P1;HPM_P2
2023/06/30 05:08:19;;;;;;;;;;;;;;;;;;5070040;28;19958;-46
2023/06/30 05:10:45;;;;;;;;;;;;;;;;;;5064930;28;20343;-45
2023/06/30 05:13:11;;;;;;;;;;;;;;;;;;5090388;28;20329;-47
2023/06/30 05:15:37;;;;;;;;;;;;;;;;;;5087272;28;19927;-44
2023/06/30 05:18:05;;;;;;;;;;;;;;;;;;5082852;28;19972;-47
2023/06/30 05:20:33;;;;;;;;;;;;;;;;;;5071452;28;20015;-48
2023/06/30 05:22:59;;;;;;;;;;;;;;;;;;5057062;28;19956;-46
2023/06/30 05:25:25;;;;;;;;;;;;;;;;;;5070375;28;19950;-45
2023/06/30 05:27:51;;;;;;;;;;;;;;;;;;5069832;28;19913;-45
2023/06/30 05:30:17;;;;;;;;;;;;;;;;;;5069138;28;19951;-45
2023/06/30 05:32:43;;;;;;;;;;;;;;;;;;5070072;28;19916;-46
2023/06/30 05:35:09;;;;;;;;;;;;;;;;;;5065563;28;19944;-46
2023/06/30 05:37:35;;;;;;;;;;;;;;;;;;5049568;28;19909;-45
2023/06/30 05:40:01;;;;;;;;;;;;;;;;;;5049647;28;19917;-46
2023/06/30 05:42:27;;;;;;;;;;;;;;;;;;5062447;28;19952;-47
2023/06/30 05:44:53;;;;;;;;;;;;;;;;;;5066989;28;20534;-44
2023/06/30 05:47:19;;;;;;;;;;;;;;;;;;5070568;28;20042;-45
2023/06/30 05:49:45;;;;;;;;;;;;;;;;;;5068843;28;19935;-45
2023/06/30 05:52:11;;;;;;;;;;;;;;;;;;5068886;28;19912;-45
2023/06/30 05:54:36;;;;;;;;;;;;;;;;;;5070021;28;19924;-43
2023/06/30 05:57:02;;;;;;;;;;;;;;;;;;5069061;28;19917;-44
2023/06/30 05:59:30;;;;;;;;;;;;;;;;;;5065694;28;19920;-45
2023/06/30 06:01:56;;;;;;;;;;;;;;;;;;5087178;28;19935;-45
2023/06/30 06:04:22;;;;;;;;;;;;;;;;;;5090845;28;19912;-48
2023/06/30 06:06:48;;;;;;;;;;;;;;;;;;5089562;28;20023;-43
2023/06/30 06:09:14;;;;;;;;;;;;;;;;;;5076727;28;19916;-45
2023/06/30 06:11:40;;;;;;;;;;;;;;;;;;5049989;28;19909;-45
2023/06/30 06:14:06;;;;;;;;;;;;;;;;;;5049920;28;19931;-44
2023/06/30 06:16:32;;;;;;;;;;;;;;;;;;5050169;28;19909;-46
2023/06/30 06:18:58;;;;;;;;;;;;;;;;;;5049469;28;20448;-46
2023/06/30 06:21:23;;;;;;;;;;;;;;;;;;5049617;28;19936;-46
2023/06/30 06:23:49;;;;;;;;;;;;;;;;;;5049418;28;19952;-44
2023/06/30 06:26:16;;;;;;;;;;;;;;;;;;5049708;28;19913;-45
2023/06/30 06:28:42;;;;;;;;;;;;;;;;;;5049546;28;19935;-44
2023/06/30 06:31:09;;;;;;;;;;;;;;;;;;5049580;28;20375;-45
2023/06/30 06:33:35;;;;;;;;;;;;;;;;;;5049864;28;20007;-44
2023/06/30 06:36:01;;;;;;;;;;;;;;;;;;5049710;28;19991;-44
2023/06/30 06:38:27;;;;;;;;;;;;;;;;;;5049768;28;19944;-45
2023/06/30 06:40:53;;;;;;;;;;;;;;;;;;5048671;28;19927;-45
2023/06/30 06:43:24;;;;;;;;;;;;;;;;;;5051832;28;19974;-44
2023/06/30 06:45:50;;;;;;;;;;;;;;;;;;5049131;28;19958;-44
2023/06/30 06:48:16;;;;;;;;;;;;;;;;;;5031726;28;19917;-44
2023/06/30 06:50:42;;;;;;;;;;;;;;;;;;5049355;28;19932;-45
2023/06/30 06:53:07;;;;;;;;;;;;;;;;;;5043389;28;19990;-47
2023/06/30 06:55:33;;;;;;;;;;;;;;;;;;5053410;28;19917;-45
2023/06/30 06:57:59;;;;;;;;;;;;;;;;;;5052227;28;19916;-46
2023/06/30 07:00:25;;;;;;;;;;;;;;;;;;5053876;28;19947;-46
2023/06/30 07:02:51;;;;;;;;;;;;;;;;;;5053730;28;20410;-45
2023/06/30 07:05:17;;;;;;;;;;;;;;;;;;5053359;28;20003;-47
2023/06/30 07:07:43;;;;;;;;;;;;;;;;;;5053396;28;19913;-45
2023/06/30 07:10:09;;;;;;;;;;;;;;;;;;5070301;28;19921;-46
2023/06/30 07:12:35;;;;;;;;;;;;;;;;;;5066699;28;20033;-44
2023/06/30 07:15:01;;;;;;;;;;;;;;;;;;5066323;28;19913;-46
2023/06/30 07:17:27;;;;;;;;;;;;;;;;;;5071619;28;19916;-46
2023/06/30 07:19:53;;;;;;;;;;;;;;;;;;5072270;28;19939;-45
2023/06/30 07:22:21;;;;;;;;;;;;;;;;;;5071601;28;19913;-44
2023/06/30 07:24:47;;;;;;;;;;;;;;;;;;5072143;28;19916;-46
2023/06/30 07:27:13;;;;;;;;;;;;;;;;;;5070634;28;19926;-44
2023/06/30 07:29:39;;;;;;;;;;;;;;;;;;5072058;28;20395;-47
2023/06/30 07:32:05;;;;;;;;;;;;;;;;;;5072295;28;20011;-46
2023/06/30 07:34:33;;;;;;;;;;;;;;;;;;5071972;28;19908;-48
2023/06/30 07:36:59;;;;;;;;;;;;;;;;;;5071818;28;19999;-46
2023/06/30 07:39:25;;;;;;;;;;;;;;;;;;5072247;28;20007;-46
2023/06/30 07:41:51;;;;;;;;;;;;;;;;;;5071557;28;19909;-45
2023/06/30 07:44:17;;;;;;;;;;;;;;;;;;5072178;28;19939;-46
2023/06/30 07:46:43;;;;;;;;;;;;;;;;;;5072018;28;19927;-45
2023/06/30 07:49:09;;;;;;;;;;;;;;;;;;5071508;28;19958;-45
2023/06/30 07:51:35;;;;;;;;;;;;;;;;;;5071728;28;19977;-46
2023/06/30 07:54:01;;;;;;;;;;;;;;;;;;5071613;28;19916;-46
2023/06/30 07:56:27;;;;;;;;;;;;;;;;;;5071617;28;19912;-46
2023/06/30 07:58:53;;;;;;;;;;;;;;;;;;5071747;28;19912;-46
2023/06/30 08:01:19;;;;;;;;;;;;;;;;;;5071248;28;19923;-44
2023/06/30 08:03:46;;;;;;;;;;;;;;;;;;5071470;28;19909;-48
2023/06/30 08:06:12;;;;;;;;;;;;;;;;;;5071672;28;20379;-46
2023/06/30 08:08:38;;;;;;;;;;;;;;;;;;5071457;28;19923;-45
2023/06/30 08:11:04;;;;;;;;;;;;;;;;;;5071227;28;19935;-45
2023/06/30 08:13:30;;;;;;;;;;;;;;;;;;5071434;28;19939;-46
2023/06/30 08:15:56;;;;;;;;;;;;;;;;;;5071431;28;19966;-45
2023/06/30 08:18:22;;;;;;;;;;;;;;;;;;5071555;28;20083;-45
2023/06/30 08:20:48;;;;;;;;;;;;;;;;;;5071071;28;19999;-47
2023/06/30 08:23:14;;;;;;;;;;;;;;;;;;5071338;28;20011;-44
2023/06/30 08:25:40;;;;;;;;;;;;;;;;;;5071161;28;19913;-46
2023/06/30 08:28:06;;;;;;;;;;;;;;;;;;5071234;28;19912;-45
2023/06/30 08:30:32;;;;;;;;;;;;;;;;;;5052684;28;19913;-47
2023/06/30 08:32:58;;;;;;;;;;;;;;;;;;5071041;28;19916;-47
2023/06/30 08:35:24;;;;;;;;;;;;;;;;;;5071285;28;19974;-47
2023/06/30 08:37:50;;;;;;;;;;;;;;;;;;5070728;28;19912;-46
2023/06/30 08:40:16;;;;;;;;;;;;;;;;;;5070661;28;19921;-47
2023/06/30 08:42:42;;;;;;;;;;;;;;;;;;5070662;28;19912;-46
2023/06/30 08:45:08;;;;;;;;;;;;;;;;;;5070916;28;19912;-49
2023/06/30 08:47:34;;;;;;;;;;;;;;;;;;5070789;28;20692;-46
2023/06/30 08:50:00;;;;;;;;;;;;;;;;;;5070227;28;19909;-49
2023/06/30 08:52:26;;;;;;;;;;;;;;;;;;5070092;28;19962;-45
2023/06/30 08:54:52;;;;;;;;;;;;;;;;;;5070423;28;19913;-46
2023/06/30 08:57:18;;;;;;;;;;;;;;;;;;5069899;28;19932;-47
2023/06/30 08:59:44;;;;;;;;;;;;;;;;;;5069873;28;19988;-48
2023/06/30 09:02:10;;;;;;;;;;;;;;;;;;5070201;28;19916;-46
2023/06/30 09:04:36;;;;;;;;;;;;;;;;;;5070475;28;19920;-45
2023/06/30 09:07:06;;;;;;;;;;;;;;;;;;5070506;28;19909;-45
2023/06/30 09:09:32;;;;;;;;;;;;;;;;;;5067596;28;19923;-46
2023/06/30 09:11:58;;;;;;;;;;;;;;;;;;5068445;28;19912;-46
2023/06/30 09:14:24;;;;;;;;;;;;;;;;;;5048760;28;19922;-47
2023/06/30 09:16:50;;;;;;;;;;;;;;;;;;5048343;28;19937;-44
2023/06/30 09:19:16;;;;;;;;;;;;;;;;;;5048598;28;20292;-46
2023/06/30 09:21:42;;;;;;;;;;;;;;;;;;5061737;28;19916;-47
2023/06/30 09:24:08;;;;;;;;;;;;;;;;;;5068446;28;19912;-45
2023/06/30 09:26:34;;;;;;;;;;;;;;;;;;5068088;28;20352;-44
2023/06/30 09:29:00;;;;;;;;;;;;;;;;;;5068032;28;19940;-42
2023/06/30 09:31:26;;;;;;;;;;;;;;;;;;5065311;28;19955;-42
2023/06/30 09:33:52;;;;;;;;;;;;;;;;;;5060608;28;19962;-43
2023/06/30 09:36:18;;;;;;;;;;;;;;;;;;5075571;28;19912;-45
2023/06/30 09:38:44;;;;;;;;;;;;;;;;;;5056141;28;19921;-46
2023/06/30 09:41:10;;;;;;;;;;;;;;;;;;5048122;28;20375;-44
2023/06/30 09:43:36;;;;;;;;;;;;;;;;;;5053420;28;19930;-46
2023/06/30 09:46:02;;;;;;;;;;;;;;;;;;5049447;28;19909;-46
2023/06/30 09:48:28;;;;;;;;;;;;;;;;;;5068178;28;19916;-46
2023/06/30 09:50:54;;;;;;;;;;;;;;;;;;5067067;28;20283;-46
2023/06/30 09:53:20;;;;;;;;;;;;;;;;;;5068607;28;19908;-46
2023/06/30 09:55:47;;;;;;;;;;;;;;;;;;5068510;28;19908;-45
2023/06/30 09:58:13;;;;;;;;;;;;;;;;;;5065615;28;19944;-46
2023/06/30 10:00:39;;;;;;;;;;;;;;;;;;5063736;28;20460;-47
2023/06/30 10:03:08;;;;;;;;;;;;;;;;;;5051983;28;20529;-48
2023/06/30 10:05:34;;;;;;;;;;;;;;;;;;5052705;28;19999;-47
2023/06/30 10:08:00;;;;;;;;;;;;;;;;;;5048824;28;20324;-48
2023/06/30 10:10:26;;;;;;;;;;;;;;;;;;5070830;28;19926;-47
2023/06/30 10:12:52;;;;;;;;;;;;;;;;;;5067236;28;19930;-47
2023/06/30 10:15:18;;;;;;;;;;;;;;;;;;5067552;28;19958;-48
2023/06/30 10:17:44;;;;;;;;;;;;;;;;;;5062686;28;19916;-47
2023/06/30 10:20:10;;;;;;;;;;;;;;;;;;5064173;28;19924;-49
2023/06/30 10:22:37;;;;;;;;;;;;;;;;;;5075531;28;19920;-47
2023/06/30 10:25:03;;;;;;;;;;;;;;;;;;5064718;28;19919;-49
2023/06/30 10:27:29;;;;;;;;;;;;;;;;;;5054923;28;19912;-47
2023/06/30 10:29:55;;;;;;;;;;;;;;;;;;5066251;28;19916;-50
2023/06/30 10:32:21;;;;;;;;;;;;;;;;;;5065173;28;19935;-48
2023/06/30 10:34:47;;;;;;;;;;;;;;;;;;5054534;28;19985;-49
2023/06/30 10:37:13;;;;;;;;;;;;;;;;;;5064464;28;19916;-48
2023/06/30 10:39:39;;;;;;;;;;;;;;;;;;5065306;28;19916;-46
2023/06/30 10:42:05;;;;;;;;;;;;;;;;;;5067362;28;19916;-47
2023/06/30 10:44:30;;;;;;;;;;;;;;;;;;5086523;28;19954;-48
2023/06/30 10:46:57;;;;;;;;;;;;;;;;;;5069901;28;19912;-49
2023/06/30 10:49:23;;;;;;;;;;;;;;;;;;5066864;28;19940;-47
2023/06/30 10:51:49;;;;;;;;;;;;;;;;;;5067071;28;19936;-48
2023/06/30 10:54:15;;;;;;;;;;;;;;;;;;5066975;28;19928;-47
2023/06/30 10:56:41;;;;;;;;;;;;;;;;;;5067276;28;19913;-47
2023/06/30 10:59:08;;;;;;;;;;;;;;;;;;5066625;28;19932;-49
2023/06/30 11:01:34;;;;;;;;;;;;;;;;;;5066946;28;19916;-49
2023/06/30 11:04:02;;;;;;;;;;;;;;;;;;5067004;28;19928;-47
2023/06/30 11:06:28;;;;;;;;;;;;;;;;;;5065283;28;19966;-47
2023/06/30 11:08:54;;;;;;;;;;;;;;;;;;5068027;28;19955;-46
2023/06/30 11:11:20;;;;;;;;;;;;;;;;;;5056551;28;19917;-47
2023/06/30 11:13:47;;;;;;;;;;;;;;;;;;5055229;28;19917;-46
2023/06/30 11:16:13;;;;;;;;;;;;;;;;;;5055829;28;20007;-47
2023/06/30 11:18:39;;;;;;;;;;;;;;;;;;5066715;28;19932;-46
2023/06/30 11:21:05;;;;;;;;;;;;;;;;;;5059504;28;20457;-48
2023/06/30 11:23:31;;;;;;;;;;;;;;;;;;5076679;28;19921;-46
2023/06/30 11:25:57;;;;;;;;;;;;;;;;;;5070036;28;19912;-46
2023/06/30 11:28:23;;;;;;;;;;;;;;;;;;5066941;28;19922;-46
2023/06/30 11:30:49;;;;;;;;;;;;;;;;;;5059214;28;20314;-47
2023/06/30 11:33:15;;;;;;;;;;;;;;;;;;5051546;28;19954;-48
2023/06/30 11:35:41;;;;;;;;;;;;;;;;;;5063503;28;19998;-47
2023/06/30 11:38:10;;;;;;;;;;;;;;;;;;5068258;28;19951;-47
2023/06/30 11:40:36;;;;;;;;;;;;;;;;;;5069361;28;20003;-50
2023/06/30 11:43:03;;;;;;;;;;;;;;;;;;5068501;28;20051;-46
2023/06/30 11:45:28;;;;;;;;;;;;;;;;;;5068704;28;19918;-46
2023/06/30 11:47:54;;;;;;;;;;;;;;;;;;5069123;28;19999;-46
2023/06/30 11:50:20;;;;;;;;;;;;;;;;;;5068892;28;20303;-46
2023/06/30 11:52:46;;;;;;;;;;;;;;;;;;5068750;28;19909;-46
2023/06/30 11:55:12;;;;;;;;;;;;;;;;;;5068426;28;19916;-47
2023/06/30 11:57:38;;;;;;;;;;;;;;;;;;5068554;28;19913;-46
2023/06/30 12:00:04;;;;;;;;;;;;;;;;;;5068344;28;19912;-46
2023/06/30 12:02:30;;;;;;;;;;;;;;;;;;5068614;28;19912;-47
2023/06/30 12:04:56;;;;;;;;;;;;;;;;;;5050865;28;19927;-46
2023/06/30 12:07:23;;;;;;;;;;;;;;;;;;5068404;28;19962;-50
2023/06/30 12:09:49;;;;;;;;;;;;;;;;;;5067744;28;19927;-47
2023/06/30 12:12:15;;;;;;;;;;;;;;;;;;5068414;28;19912;-51
2023/06/30 12:14:42;;;;;;;;;;;;;;;;;;5068456;28;19913;-46
2023/06/30 12:17:08;;;;;;;;;;;;;;;;;;5068120;28;20481;-46
2023/06/30 12:19:33;;;;;;;;;;;;;;;;;;5068239;28;19916;-46
2023/06/30 12:21:59;;;;;;;;;;;;;;;;;;5068088;28;20337;-47
2023/06/30 12:24:25;;;;;;;;;;;;;;;;;;5068319;28;19924;-48
2023/06/30 12:26:51;;;;;;;;;;;;;;;;;;5067994;28;19909;-47
2023/06/30 12:29:17;;;;;;;;;;;;;;;;;;5067981;28;19909;-47
2023/06/30 12:31:44;;;;;;;;;;;;;;;;;;5068133;28;19915;-49
2023/06/30 12:34:10;;;;;;;;;;;;;;;;;;5067727;28;19955;-48
2023/06/30 12:36:38;;;;;;;;;;;;;;;;;;5067782;28;19955;-48
2023/06/30 12:39:04;;;;;;;;;;;;;;;;;;5067028;28;19908;-48
2023/06/30 12:41:30;;;;;;;;;;;;;;;;;;5067772;28;20291;-50
2023/06/30 12:43:58;;;;;;;;;;;;;;;;;;5068283;28;19923;-47
2023/06/30 12:46:24;;;;;;;;;;;;;;;;;;5068289;28;19916;-46
2023/06/30 12:48:51;;;;;;;;;;;;;;;;;;5066160;28;19912;-48
2023/06/30 12:51:16;;;;;;;;;;;;;;;;;;5067474;28;19967;-46
2023/06/30 12:53:42;;;;;;;;;;;;;;;;;;5067616;28;20119;-47
2023/06/30 12:56:08;;;;;;;;;;;;;;;;;;5067450;28;19912;-46
2023/06/30 12:58:34;;;;;;;;;;;;;;;;;;5067525;28;19932;-46
2023/06/30 13:01:00;;;;;;;;;;;;;;;;;;5067312;28;19970;-46
2023/06/30 13:03:28;;;;;;;;;;;;;;;;;;5067091;28;19916;-46
2023/06/30 13:05:54;;;;;;;;;;;;;;;;;;5067630;28;19908;-47
2023/06/30 13:08:19;;;;;;;;;;;;;;;;;;5060609;28;19955;-47
2023/06/30 13:10:45;;;;;;;;;;;;;;;;;;5047491;28;20082;-49
2023/06/30 13:13:11;;;;;;;;;;;;;;;;;;5047550;28;19908;-48
2023/06/30 13:15:37;;;;;;;;;;;;;;;;;;5048130;28;19909;-48
2023/06/30 13:18:03;;;;;;;;;;;;;;;;;;5046725;28;19995;-47
2023/06/30 13:20:29;;;;;;;;;;;;;;;;;;5046919;28;19919;-48
2023/06/30 13:22:55;;;;;;;;;;;;;;;;;;5046804;28;19909;-46
2023/06/30 13:25:22;;;;;;;;;;;;;;;;;;5047048;28;19913;-47
2023/06/30 13:27:47;;;;;;;;;;;;;;;;;;5046781;28;19909;-49
2023/06/30 13:30:13;;;;;;;;;;;;;;;;;;5046759;28;20000;-49
2023/06/30 13:32:39;;;;;;;;;;;;;;;;;;5047445;28;20392;-46
2023/06/30 13:35:05;;;;;;;;;;;;;;;;;;5046604;28;20005;-48
2023/06/30 13:37:31;;;;;;;;;;;;;;;;;;5046439;28;20019;-46
2023/06/30 13:39:57;;;;;;;;;;;;;;;;;;5046479;28;19913;-48
2023/06/30 13:42:24;;;;;;;;;;;;;;;;;;5046698;28;19916;-47
2023/06/30 13:44:50;;;;;;;;;;;;;;;;;;5046694;28;19909;-48
2023/06/30 13:47:16;;;;;;;;;;;;;;;;;;5046496;28;20005;-46
2023/06/30 13:49:41;;;;;;;;;;;;;;;;;;5046505;28;19928;-47
2023/06/30 13:52:08;;;;;;;;;;;;;;;;;;5046817;28;19909;-46
2023/06/30 13:54:36;;;;;;;;;;;;;;;;;;5046298;28;19931;-48
2023/06/30 13:57:02;;;;;;;;;;;;;;;;;;5061518;28;20344;-47
2023/06/30 13:59:27;;;;;;;;;;;;;;;;;;5045440;28;19913;-48
2023/06/30 14:01:53;;;;;;;;;;;;;;;;;;5046305;28;19909;-47
2023/06/30 14:04:19;;;;;;;;;;;;;;;;;;5045987;28;19912;-46
2023/06/30 14:06:45;;;;;;;;;;;;;;;;;;5046215;28;19917;-48
2023/06/30 14:09:11;;;;;;;;;;;;;;;;;;5046483;28;19947;-49
2023/06/30 14:11:37;;;;;;;;;;;;;;;;;;5046561;28;19959;-46
2023/06/30 14:14:03;;;;;;;;;;;;;;;;;;5046208;28;20384;-48
2023/06/30 14:16:29;;;;;;;;;;;;;;;;;;5046066;28;19951;-46
2023/06/30 14:18:55;;;;;;;;;;;;;;;;;;5045506;28;19940;-50
2023/06/30 14:21:21;;;;;;;;;;;;;;;;;;5045864;28;19918;-48
2023/06/30 14:23:47;;;;;;;;;;;;;;;;;;5045528;28;19978;-47
2023/06/30 14:26:13;;;;;;;;;;;;;;;;;;5045916;28;19963;-48
2023/06/30 14:28:39;;;;;;;;;;;;;;;;;;5046278;28;19935;-47
2023/06/30 14:31:04;;;;;;;;;;;;;;;;;;5045724;28;19932;-47
2023/06/30 14:33:31;;;;;;;;;;;;;;;;;;5045774;28;19935;-48
2023/06/30 14:35:58;;;;;;;;;;;;;;;;;;5064948;28;20015;-51
2023/06/30 14:38:25;;;;;;;;;;;;;;;;;;5066770;28;19920;-50
2023/06/30 14:40:50;;;;;;;;;;;;;;;;;;5067079;28;19974;-48
2023/06/30 14:43:16;;;;;;;;;;;;;;;;;;5066984;28;19912;-50
2023/06/30 14:45:42;;;;;;;;;;;;;;;;;;5066857;28;19913;-46
2023/06/30 14:48:08;;;;;;;;;;;;;;;;;;5066775;28;20920;-48
2023/06/30 14:50:36;;;;;;;;;;;;;;;;;;5065632;28;19911;-47
2023/06/30 14:53:02;;;;;;;;;;;;;;;;;;5064928;28;20307;-48
2023/06/30 14:55:28;;;;;;;;;;;;;;;;;;5065865;28;19908;-47
2023/06/30 14:57:54;;;;;;;;;;;;;;;;;;5065202;28;19912;-47
2023/06/30 15:00:20;;;;;;;;;;;;;;;;;;5065421;28;19913;-48
2023/06/30 15:02:45;;;;;;;;;;;;;;;;;;5064771;28;19963;-51
2023/06/30 15:05:11;;;;;;;;;;;;;;;;;;5065632;28;19977;-51
2023/06/30 15:07:37;;;;;;;;;;;;;;;;;;5065738;28;19920;-47
2023/06/30 15:10:03;;;;;;;;;;;;;;;;;;5065289;28;19917;-48
2023/06/30 15:12:29;;;;;;;;;;;;;;;;;;5066878;28;20399;-49
2023/06/30 15:14:55;;;;;;;;;;;;;;;;;;5058028;28;19990;-49
2023/06/30 15:17:21;;;;;;;;;;;;;;;;;;5075299;28;19920;-47
2023/06/30 15:19:47;;;;;;;;;;;;;;;;;;5050525;28;19927;-52
2023/06/30 15:22:13;;;;;;;;;;;;;;;;;;5073586;28;19913;-49
2023/06/30 15:24:39;;;;;;;;;;;;;;;;;;5068074;28;19970;-49
2023/06/30 15:27:05;;;;;;;;;;;;;;;;;;5071048;28;19981;-48
2023/06/30 15:29:31;;;;;;;;;;;;;;;;;;5070883;28;20727;-49
2023/06/30 15:31:57;;;;;;;;;;;;;;;;;;5070235;28;19921;-50
2023/06/30 15:34:23;;;;;;;;;;;;;;;;;;5071681;28;19955;-48
2023/06/30 15:36:49;;;;;;;;;;;;;;;;;;5071131;28;19916;-50
2023/06/30 15:39:15;;;;;;;;;;;;;;;;;;5070757;28;19908;-47
2023/06/30 15:41:41;;;;;;;;;;;;;;;;;;5071386;28;19923;-48
2023/06/30 15:44:07;;;;;;;;;;;;;;;;;;5070049;28;19917;-48
2023/06/30 15:46:33;;;;;;;;;;;;;;;;;;5070088;28;19924;-47
2023/06/30 15:48:59;;;;;;;;;;;;;;;;;;5069481;28;19916;-50
2023/06/30 15:51:25;;;;;;;;;;;;;;;;;;5070168;28;19959;-49
2023/06/30 15:53:51;;;;;;;;;;;;;;;;;;5070178;28;19912;-48
2023/06/30 15:56:17;;;;;;;;;;;;;;;;;;5070162;28;19916;-48
2023/06/30 15:58:42;;;;;;;;;;;;;;;;;;5069677;28;20027;-48
2023/06/30 16:01:08;;;;;;;;;;;;;;;;;;5069736;28;20395;-48
2023/06/30 16:03:34;;;;;;;;;;;;;;;;;;5064527;28;19916;-49
2023/06/30 16:06:00;;;;;;;;;;;;;;;;;;5065815;28;19923;-52
2023/06/30 16:08:26;;;;;;;;;;;;;;;;;;5061155;28;19943;-53
2023/06/30 16:10:52;;;;;;;;;;;;;;;;;;5063554;28;19916;-47
2023/06/30 16:13:18;;;;;;;;;;;;;;;;;;5069033;28;20307;-48
2023/06/30 16:15:44;;;;;;;;;;;;;;;;;;5069080;28;19919;-49
2023/06/30 16:18:10;;;;;;;;;;;;;;;;;;5069596;28;20065;-50
2023/06/30 16:20:36;;;;;;;;;;;;;;;;;;5069160;28;19920;-50
2023/06/30 16:23:01;;;;;;;;;;;;;;;;;;5069763;28;20475;-49
2023/06/30 16:25:27;;;;;;;;;;;;;;;;;;5067519;28;19959;-47
2023/06/30 16:27:53;;;;;;;;;;;;;;;;;;5068055;28;20011;-49
2023/06/30 16:30:20;;;;;;;;;;;;;;;;;;5066664;28;19947;-49
2023/06/30 16:32:46;;;;;;;;;;;;;;;;;;5068129;28;20487;-51
2023/06/30 16:35:12;;;;;;;;;;;;;;;;;;5067137;28;20021;-49
2023/06/30 16:37:38;;;;;;;;;;;;;;;;;;5068780;28;19935;-49
2023/06/30 16:40:04;;;;;;;;;;;;;;;;;;5067120;28;19969;-47
2023/06/30 16:42:30;;;;;;;;;;;;;;;;;;5061552;28;20004;-52
2023/06/30 16:44:55;;;;;;;;;;;;;;;;;;5068141;28;19927;-51
2023/06/30 16:47:24;;;;;;;;;;;;;;;;;;5066620;28;19923;-47
2023/06/30 16:49:50;;;;;;;;;;;;;;;;;;5066586;28;19943;-46
2023/06/30 16:52:16;;;;;;;;;;;;;;;;;;5066272;28;19934;-48
2023/06/30 16:54:41;;;;;;;;;;;;;;;;;;5069501;28;19977;-49
2023/06/30 16:57:07;;;;;;;;;;;;;;;;;;5066850;28;19924;-50
2023/06/30 16:59:33;;;;;;;;;;;;;;;;;;5065719;28;20026;-51
2023/06/30 17:01:59;;;;;;;;;;;;;;;;;;5066459;28;19931;-48
2023/06/30 17:04:25;;;;;;;;;;;;;;;;;;5066718;28;20190;-53
2023/06/30 17:06:51;;;;;;;;;;;;;;;;;;5080308;28;20412;-46
2023/06/30 17:09:19;;;;;;;;;;;;;;;;;;5066214;28;19939;-47
2023/06/30 17:11:45;;;;;;;;;;;;;;;;;;5075270;28;20064;-47
2023/06/30 17:14:10;;;;;;;;;;;;;;;;;;5065757;28;20021;-48
2023/06/30 17:16:36;;;;;;;;;;;;;;;;;;5065533;28;20364;-50
2023/06/30 17:19:02;;;;;;;;;;;;;;;;;;5065827;28;19930;-47
2023/06/30 17:21:29;;;;;;;;;;;;;;;;;;5047017;28;20471;-48
2023/06/30 17:23:55;;;;;;;;;;;;;;;;;;5065638;28;19927;-47
2023/06/30 17:26:22;;;;;;;;;;;;;;;;;;5065512;28;19919;-48
2023/06/30 17:28:48;;;;;;;;;;;;;;;;;;5065501;28;19947;-49
2023/06/30 17:31:14;;;;;;;;;;;;;;;;;;5078075;28;20440;-49
2023/06/30 17:33:40;;;;;;;;;;;;;;;;;;5069396;28;19927;-48
2023/06/30 17:36:06;;;;;;;;;;;;;;;;;;5070786;28;19930;-47
2023/06/30 17:38:32;;;;;;;;;;;;;;;;;;5057150;28;19927;-51
2023/06/30 17:40:58;;;;;;;;;;;;;;;;;;5050253;28;20010;-48
2023/06/30 17:43:24;;;;;;;;;;;;;;;;;;5046103;28;19931;-48
2023/06/30 17:45:50;;;;;;;;;;;;;;;;;;5046048;28;19965;-49
2023/06/30 17:48:16;;;;;;;;;;;;;;;;;;5058176;28;19981;-49
2023/06/30 17:50:43;;;;;;;;;;;;;;;;;;5061855;28;20404;-47
2023/06/30 17:53:09;;;;;;;;;;;;;;;;;;5063468;28;19973;-49
2023/06/30 17:55:34;;;;;;;;;;;;;;;;;;5050224;28;19931;-50
2023/06/30 17:58:00;;;;;;;;;;;;;;;;;;5062846;28;20428;-49
2023/06/30 18:00:26;;;;;;;;;;;;;;;;;;5056416;28;19943;-47
2023/06/30 18:02:52;;;;;;;;;;;;;;;;;;5061373;28;19923;-49
2023/06/30 18:05:18;;;;;;;;;;;;;;;;;;5056211;28;20418;-51
2023/06/30 18:07:44;;;;;;;;;;;;;;;;;;5070959;28;19937;-47
2023/06/30 18:10:13;;;;;;;;;;;;;;;;;;5060601;28;19935;-48
2023/06/30 18:12:38;;;;;;;;;;;;;;;;;;5060088;28;21288;-48
2023/06/30 18:15:04;;;;;;;;;;;;;;;;;;5056835;28;19935;-49
2023/06/30 18:17:30;;;;;;;;;;;;;;;;;;5058967;28;20417;-49
2023/06/30 18:19:56;;;;;;;;;;;;;;;;;;5055870;28;19954;-48
2023/06/30 18:22:23;;;;;;;;;;;;;;;;;;5061684;28;20425;-48
2023/06/30 18:24:49;;;;;;;;;;;;;;;;;;5055260;28;20325;-48
2023/06/30 18:27:15;;;;;;;;;;;;;;;;;;5069367;28;19927;-48
2023/06/30 18:29:41;;;;;;;;;;;;;;;;;;5057062;28;19953;-47
2023/06/30 18:32:07;;;;;;;;;;;;;;;;;;5050518;28;19973;-47
2023/06/30 18:34:33;;;;;;;;;;;;;;;;;;5068796;28;19989;-48
2023/06/30 18:36:59;;;;;;;;;;;;;;;;;;5056696;28;19943;-48
2023/06/30 18:39:25;;;;;;;;;;;;;;;;;;5059700;28;20568;-48
2023/06/30 18:41:51;;;;;;;;;;;;;;;;;;5071025;28;19951;-47
2023/06/30 18:44:17;;;;;;;;;;;;;;;;;;5075738;28;20009;-47
2023/06/30 18:46:43;;;;;;;;;;;;;;;;;;5064112;28;20613;-49
2023/06/30 18:49:09;;;;;;;;;;;;;;;;;;5046952;28;19973;-47
2023/06/30 18:51:35;;;;;;;;;;;;;;;;;;5064035;28;19934;-48
2023/06/30 18:54:02;;;;;;;;;;;;;;;;;;5058468;28;19963;-48
2023/06/30 18:56:28;;;;;;;;;;;;;;;;;;5071691;28;19923;-49
2023/06/30 18:58:56;;;;;;;;;;;;;;;;;;5063970;28;20472;-47
2023/06/30 19:01:22;;;;;;;;;;;;;;;;;;5076491;28;19997;-45
2023/06/30 19:03:49;;;;;;;;;;;;;;;;;;5052498;28;19927;-45
2023/06/30 19:06:15;;;;;;;;;;;;;;;;;;5064706;28;19931;-48
2023/06/30 19:08:41;;;;;;;;;;;;;;;;;;5053477;28;19938;-46
2023/06/30 19:11:07;;;;;;;;;;;;;;;;;;5077519;28;20128;-45
2023/06/30 19:13:33;;;;;;;;;;;;;;;;;;5049582;28;19931;-45
2023/06/30 19:15:59;;;;;;;;;;;;;;;;;;5053580;28;19985;-46
2023/06/30 19:18:25;;;;;;;;;;;;;;;;;;5061301;28;19933;-46
2023/06/30 19:20:51;;;;;;;;;;;;;;;;;;5059767;28;19996;-48
2023/06/30 19:23:16;;;;;;;;;;;;;;;;;;5062502;28;19934;-47
2023/06/30 19:25:42;;;;;;;;;;;;;;;;;;5055871;28;19976;-46
2023/06/30 19:28:08;;;;;;;;;;;;;;;;;;5049706;28;19927;-46
2023/06/30 19:30:34;;;;;;;;;;;;;;;;;;5062214;28;19930;-47
2023/06/30 19:33:01;;;;;;;;;;;;;;;;;;5055840;28;19950;-45
2023/06/30 19:35:27;;;;;;;;;;;;;;;;;;5059012;28;19931;-47
2023/06/30 19:37:53;;;;;;;;;;;;;;;;;;5062151;28;20440;-46
2023/06/30 19:40:22;;;;;;;;;;;;;;;;;;5062284;28;20453;-46
2023/06/30 19:42:47;;;;;;;;;;;;;;;;;;5079483;28;19954;-44
2023/06/30 19:45:13;;;;;;;;;;;;;;;;;;5078176;28;19930;-44
2023/06/30 19:47:39;;;;;;;;;;;;;;;;;;5078928;28;20416;-45
2023/06/30 19:50:05;;;;;;;;;;;;;;;;;;5066374;28;19981;-45
2023/06/30 19:52:33;;;;;;;;;;;;;;;;;;5043430;28;20418;-46
2023/06/30 19:54:59;;;;;;;;;;;;;;;;;;5056127;28;19937;-48
2023/06/30 19:57:26;;;;;;;;;;;;;;;;;;5062768;28;20002;-45
2023/06/30 19:59:52;;;;;;;;;;;;;;;;;;5064889;28;19933;-45
2023/06/30 20:02:18;;;;;;;;;;;;;;;;;;5068034;28;19922;-44
2023/06/30 20:04:44;;;;;;;;;;;;;;;;;;5056073;28;19917;-45
2023/06/30 20:07:11;;;;;;;;;;;;;;;;;;5069630;28;20367;-44
2023/06/30 20:09:38;;;;;;;;;;;;;;;;;;5087639;28;20328;-44
2023/06/30 20:12:04;;;;;;;;;;;;;;;;;;5066637;28;20364;-47
2023/06/30 20:14:29;;;;;;;;;;;;;;;;;;5060279;28;19980;-46
2023/06/30 20:16:55;;;;;;;;;;;;;;;;;;5062258;28;19966;-44
2023/06/30 20:19:21;;;;;;;;;;;;;;;;;;5063291;28;19927;-47
2023/06/30 20:21:47;;;;;;;;;;;;;;;;;;5057918;28;20038;-45
2023/06/30 20:24:15;;;;;;;;;;;;;;;;;;5063729;28;19929;-44
2023/06/30 20:26:41;;;;;;;;;;;;;;;;;;5064401;28;20392;-44
2023/06/30 20:29:07;;;;;;;;;;;;;;;;;;5063620;28;19931;-46
2023/06/30 20:31:33;;;;;;;;;;;;;;;;;;5061988;28;19927;-45
2023/06/30 20:33:59;;;;;;;;;;;;;;;;;;5060049;28;19931;-47
2023/06/30 20:36:25;;;;;;;;;;;;;;;;;;5063796;28;19927;-44
2023/06/30 20:38:52;;;;;;;;;;;;;;;;;;5056044;28;19935;-48
2023/06/30 20:41:18;;;;;;;;;;;;;;;;;;5047749;28;20171;-45
2023/06/30 20:43:44;;;;;;;;;;;;;;;;;;5065367;28;19930;-48
2023/06/30 20:46:10;;;;;;;;;;;;;;;;;;5048386;28;19931;-44
2023/06/30 20:48:35;;;;;;;;;;;;;;;;;;5045416;28;20034;-44
2023/06/30 20:51:01;;;;;;;;;;;;;;;;;;5048955;28;19924;-47
2023/06/30 20:53:27;;;;;;;;;;;;;;;;;;5065010;28;19919;-48
2023/06/30 20:55:55;;;;;;;;;;;;;;;;;;5065222;28;20367;-49
2023/06/30 20:58:22;;;;;;;;;;;;;;;;;;5066277;28;19915;-46
2023/06/30 21:00:48;;;;;;;;;;;;;;;;;;5044347;28;19939;-45
2023/06/30 21:03:14;;;;;;;;;;;;;;;;;;5028257;28;19931;-48
2023/06/30 21:05:40;;;;;;;;;;;;;;;;;;5046500;28;20027;-48
2023/06/30 21:08:05;;;;;;;;;;;;;;;;;;5046159;28;19981;-47
2023/06/30 21:10:32;;;;;;;;;;;;;;;;;;5026816;28;20408;-46
2023/06/30 21:12:59;;;;;;;;;;;;;;;;;;5046302;28;20397;-46
2023/06/30 21:15:25;;;;;;;;;;;;;;;;;;5065878;28;19970;-46
2023/06/30 21:17:51;;;;;;;;;;;;;;;;;;5065754;28;20001;-45
2023/06/30 21:20:17;;;;;;;;;;;;;;;;;;5065792;28;19949;-47
2023/06/30 21:22:43;;;;;;;;;;;;;;;;;;5065565;28;19972;-49
2023/06/30 21:25:09;;;;;;;;;;;;;;;;;;5066222;28;19923;-46
2023/06/30 21:27:35;;;;;;;;;;;;;;;;;;5065591;28;19927;-47
2023/06/30 21:30:01;;;;;;;;;;;;;;;;;;5065550;28;20002;-48
2023/06/30 21:32:27;;;;;;;;;;;;;;;;;;5065146;28;19926;-47
2023/06/30 21:34:53;;;;;;;;;;;;;;;;;;5065610;28;19923;-48
2023/06/30 21:37:19;;;;;;;;;;;;;;;;;;5047692;28;19977;-50
2023/06/30 21:39:46;;;;;;;;;;;;;;;;;;5064998;28;20314;-47
2023/06/30 21:42:12;;;;;;;;;;;;;;;;;;5064959;28;20344;-45
2023/06/30 21:44:39;;;;;;;;;;;;;;;;;;5065774;28;19927;-48